Time;durP1;ratioP1;P1;durP2;ratioP2;P2;SDS_P1;SDS_P2;PMS_P1;PMS_P2;Temp;Humidity;BMP_temperature;BMP_pressure;BME280_temperature;BME280_humidity;BME280_pressure;Samples;Min_cycle;Max_cycle;Signal;HPM_P1;HPM_P2
2021/03/01 00:00:05;;;;;;;11.18;6.68;;;;;;;0.80;92.91;100043.81;3513735;28;20112;-50
2021/03/01 00:01:46;;;;;;;11.23;6.72;;;;;;;0.79;92.59;100049.72;3513487;28;20125;-52
2021/03/01 00:03:28;;;;;;;11.07;6.65;;;;;;;0.78;92.85;100058.16;3523257;28;20052;-50
2021/03/01 00:05:13;;;;;;;9.95;6.20;;;;;;;0.78;92.82;100062.41;3519829;28;20083;-50
2021/03/01 00:06:54;;;;;;;12.00;6.38;;;;;;;0.78;92.50;100067.50;3525063;28;20051;-51
2021/03/01 00:08:36;;;;;;;11.82;7.05;;;;;;;0.78;92.44;100067.50;3520201;28;20114;-61
2021/03/01 00:10:18;;;;;;;13.52;6.72;;;;;;;0.76;92.76;100063.97;3523311;28;20176;-61
2021/03/01 00:12:00;;;;;;;10.50;5.80;;;;;;;0.75;92.69;100068.22;3521302;28;20105;-61
2021/03/01 00:13:43;;;;;;;11.65;6.03;;;;;;;0.74;92.78;100060.47;3521513;28;20044;-62
2021/03/01 00:15:25;;;;;;;10.70;6.43;;;;;;;0.75;92.81;100064.75;3522540;28;20146;-61
2021/03/01 00:17:07;;;;;;;9.68;6.13;;;;;;;0.73;92.83;100067.22;3521083;28;20054;-62
2021/03/01 00:18:48;;;;;;;10.68;5.53;;;;;;;0.74;92.61;100066.44;3524724;28;20063;-61
2021/03/01 00:20:30;;;;;;;9.15;5.30;;;;;;;0.74;92.49;100071.56;3516926;28;20055;-61
2021/03/01 00:22:12;;;;;;;9.00;5.53;;;;;;;0.72;92.83;100065.47;3511434;28;20059;-61
2021/03/01 00:23:54;;;;;;;8.82;5.57;;;;;;;0.72;92.48;100069.69;3520858;28;20047;-61
2021/03/01 00:25:36;;;;;;;6.93;4.80;;;;;;;0.67;92.48;100064.31;3519864;28;20056;-61
2021/03/01 00:27:19;;;;;;;8.03;4.83;;;;;;;0.69;92.60;100082.28;3510842;28;20135;-61
2021/03/01 00:29:02;;;;;;;8.25;4.80;;;;;;;0.67;92.66;100063.44;3517672;28;20280;-61
2021/03/01 00:30:43;;;;;;;9.43;4.95;;;;;;;0.65;92.87;100065.91;3523968;28;20104;-61
2021/03/01 00:32:25;;;;;;;9.23;5.28;;;;;;;0.65;92.72;100067.56;3520714;28;20051;-61
2021/03/01 00:34:07;;;;;;;8.02;5.22;;;;;;;0.65;92.94;100075.22;3522202;28;20044;-61
2021/03/01 00:35:49;;;;;;;8.70;4.93;;;;;;;0.64;92.78;100068.38;3522346;28;20063;-62
2021/03/01 00:37:31;;;;;;;8.35;4.93;;;;;;;0.63;92.98;100070.03;3521083;28;20126;-62
2021/03/01 00:39:12;;;;;;;8.52;4.90;;;;;;;0.63;92.98;100075.16;3524791;28;20071;-62
2021/03/01 00:40:54;;;;;;;7.13;4.93;;;;;;;0.62;92.86;100083.59;3521005;28;20051;-62
2021/03/01 00:42:35;;;;;;;7.63;5.57;;;;;;;0.61;92.71;100079.25;3524329;28;20052;-61
2021/03/01 00:44:18;;;;;;;8.10;5.25;;;;;;;0.61;93.10;100087.81;3521506;28;20043;-61
2021/03/01 00:45:59;;;;;;;8.90;5.13;;;;;;;0.61;93.27;100086.91;3522911;28;20470;-61
2021/03/01 00:47:41;;;;;;;7.32;5.22;;;;;;;0.60;92.88;100088.59;3521905;28;20524;-62
2021/03/01 00:49:23;;;;;;;10.18;5.55;;;;;;;0.60;93.06;100087.72;3519796;28;20063;-62
2021/03/01 00:51:05;;;;;;;9.05;5.72;;;;;;;0.60;92.91;100088.59;3513959;28;20083;-63
2021/03/01 00:52:47;;;;;;;10.52;6.00;;;;;;;0.59;92.88;100093.59;3520913;28;20050;-61
2021/03/01 00:54:28;;;;;;;10.70;5.82;;;;;;;0.58;93.08;100087.63;3524036;28;20071;-61
2021/03/01 00:56:10;;;;;;;10.10;5.85;;;;;;;0.58;93.31;100094.41;3513573;28;20048;-61
2021/03/01 00:57:51;;;;;;;10.35;5.65;;;;;;;0.56;93.36;100096.88;3512959;28;20066;-60
2021/03/01 00:59:34;;;;;;;11.50;6.03;;;;;;;0.56;93.09;100101.06;3522174;28;20532;-60
2021/03/01 01:01:15;;;;;;;10.40;5.85;;;;;;;0.56;93.00;100112.19;3520909;28;20105;-60
2021/03/01 01:02:57;;;;;;;8.02;5.57;;;;;;;0.56;93.09;100113.84;3524245;28;20060;-61
2021/03/01 01:04:39;;;;;;;8.13;4.90;;;;;;;0.55;93.23;100122.28;3515169;28;20044;-61
2021/03/01 01:06:20;;;;;;;8.55;4.90;;;;;;;0.54;93.16;100129.09;3509948;28;20095;-61
2021/03/01 01:08:02;;;;;;;7.95;4.43;;;;;;;0.54;92.96;100143.50;3521066;28;20039;-61
2021/03/01 01:09:44;;;;;;;6.95;4.63;;;;;;;0.53;93.33;100144.31;3522788;28;20047;-61
2021/03/01 01:11:26;;;;;;;8.13;4.65;;;;;;;0.51;93.04;100146.75;3522190;28;20056;-61
2021/03/01 01:13:08;;;;;;;7.53;4.68;;;;;;;0.51;93.02;100149.31;3517450;28;20048;-61
2021/03/01 01:14:50;;;;;;;8.48;4.97;;;;;;;0.50;93.26;100150.09;3524304;28;20051;-62
2021/03/01 01:16:32;;;;;;;8.32;5.53;;;;;;;0.51;93.39;100153.53;3516429;28;20044;-62
2021/03/01 01:18:13;;;;;;;9.40;5.35;;;;;;;0.49;93.27;100153.44;3509576;28;20497;-63
2021/03/01 01:19:56;;;;;;;10.25;6.82;;;;;;;0.49;93.12;100163.66;3520376;28;20448;-63
2021/03/01 01:21:38;;;;;;;8.15;4.95;;;;;;;0.49;93.29;100168.75;3520358;28;20516;-63
2021/03/01 01:23:20;;;;;;;8.90;4.88;;;;;;;0.46;93.34;100170.25;3522004;28;20055;-63
2021/03/01 01:25:02;;;;;;;7.00;4.72;;;;;;;0.47;93.44;100169.44;3519096;28;20040;-64
2021/03/01 01:26:44;;;;;;;10.20;5.05;;;;;;;0.45;93.30;100171.88;3523956;28;20074;-64
2021/03/01 01:28:25;;;;;;;9.10;5.68;;;;;;;0.45;93.37;100177.00;3520329;28;20478;-64
2021/03/01 01:30:10;;;;;;;10.27;5.95;;;;;;;0.45;93.41;100178.66;3522730;28;20581;-64
2021/03/01 01:31:52;;;;;;;11.07;6.63;;;;;;;0.44;93.43;100185.44;3519973;28;20126;-65
2021/03/01 01:33:34;;;;;;;10.80;6.70;;;;;;;0.44;93.37;100185.44;3520480;28;20051;-64
2021/03/01 01:35:17;;;;;;;12.05;6.68;;;;;;;0.45;93.61;100196.53;3522743;28;20078;-64
2021/03/01 01:36:59;;;;;;;11.88;6.82;;;;;;;0.43;93.61;100189.66;3520313;28;20048;-64
2021/03/01 01:38:40;;;;;;;11.43;5.82;;;;;;;0.44;93.41;100190.56;3523947;28;20504;-64
2021/03/01 01:40:23;;;;;;;11.40;6.53;;;;;;;0.43;93.35;100198.97;3519077;28;20577;-64
2021/03/01 01:42:04;;;;;;;10.43;6.38;;;;;;;0.42;93.37;100205.78;3523336;28;20048;-65
2021/03/01 01:43:46;;;;;;;9.95;5.97;;;;;;;0.42;93.46;100203.22;3521174;28;20082;-64
2021/03/01 01:45:47;;;;;;;9.13;5.68;;;;;;;0.41;93.60;100206.53;3521673;28;20078;-64
2021/03/01 01:47:28;;;;;;;8.55;5.18;;;;;;;0.40;93.52;100209.91;3514780;28;20138;-64
2021/03/01 01:49:10;;;;;;;8.13;5.32;;;;;;;0.41;93.78;100210.78;3514846;28;20063;-65
2021/03/01 01:50:51;;;;;;;8.10;5.72;;;;;;;0.40;93.48;100215.00;3509362;28;20044;-65
2021/03/01 01:52:33;;;;;;;8.38;5.32;;;;;;;0.40;93.49;100214.09;3512430;28;20067;-64
2021/03/01 01:54:15;;;;;;;8.63;5.05;;;;;;;0.39;93.66;100220.88;3511010;28;20417;-65
2021/03/01 01:55:58;;;;;;;9.27;5.40;;;;;;;0.39;93.63;100213.22;3521868;28;20052;-65
2021/03/01 01:57:41;;;;;;;8.05;5.13;;;;;;;0.39;93.85;100208.13;3518769;28;20504;-64
2021/03/01 01:59:23;;;;;;;7.57;4.85;;;;;;;0.40;93.79;100214.09;3523807;28;20424;-65
2021/03/01 02:01:06;;;;;;;8.00;4.80;;;;;;;0.39;93.90;100210.66;3514198;28;20379;-64
2021/03/01 02:02:52;;;;;;;9.40;5.10;;;;;;;0.39;93.72;100208.13;3509151;28;20056;-65
2021/03/01 02:04:39;;;;;;;7.28;4.93;;;;;;;0.40;93.89;100214.09;3520371;28;20051;-65
2021/03/01 02:06:35;;;;;;;8.02;5.47;;;;;;;0.40;93.92;100203.88;3519904;28;20052;-65
2021/03/01 02:08:24;;;;;;;8.95;5.70;;;;;;;0.41;94.03;100210.78;3509745;28;20056;-65
2021/03/01 02:10:10;;;;;;;9.68;5.68;;;;;;;0.42;93.90;100212.56;3517350;28;20490;-64
2021/03/01 02:12:04;;;;;;;9.52;6.10;;;;;;;0.42;93.76;100207.44;3523102;28;20062;-65
2021/03/01 02:13:50;;;;;;;10.02;5.57;;;;;;;0.43;93.72;100214.28;3519375;28;20048;-64
2021/03/01 02:15:43;;;;;;;8.35;5.43;;;;;;;0.43;93.85;100220.28;3518941;28;20048;-65
2021/03/01 02:17:27;;;;;;;10.13;6.03;;;;;;;0.45;93.78;100222.94;3509982;28;20052;-65
2021/03/01 02:19:09;;;;;;;8.73;5.60;;;;;;;0.46;93.89;100223.84;3511836;28;20048;-65
2021/03/01 02:20:52;;;;;;;9.15;5.30;;;;;;;0.46;93.90;100218.72;3510391;28;20052;-65
2021/03/01 02:22:34;;;;;;;8.38;5.53;;;;;;;0.46;93.71;100218.72;3519878;28;20051;-64
2021/03/01 02:24:20;;;;;;;11.10;5.85;;;;;;;0.46;93.78;100217.06;3518720;28;20483;-64
2021/03/01 02:26:04;;;;;;;8.68;5.60;;;;;;;0.47;93.98;100226.50;3509366;28;20555;-65
2021/03/01 02:27:49;;;;;;;;;;;;;;;0.49;93.72;100224.00;3516493;28;20512;-64
2021/03/01 02:29:33;;;;;;;8.55;5.55;;;;;;;0.50;93.53;100223.22;3521897;28;19923;-65
2021/03/01 02:31:17;;;;;;;7.15;4.82;;;;;;;0.51;93.60;100222.47;3511395;28;20036;-65
2021/03/01 02:33:02;;;;;;;8.93;5.32;;;;;;;0.53;93.59;100225.97;3511248;28;20058;-64
2021/03/01 02:34:45;;;;;;;9.43;5.70;;;;;;;0.54;93.82;100225.16;3511842;28;20055;-64
2021/03/01 02:36:30;;;;;;;9.05;5.68;;;;;;;0.54;93.61;100230.28;3518013;28;20086;-65
2021/03/01 02:38:13;;;;;;;11.02;6.55;;;;;;;0.55;93.71;100229.50;3526045;28;20055;-65
2021/03/01 02:39:56;;;;;;;9.15;6.13;;;;;;;0.56;93.59;100241.47;3520871;28;20607;-64
2021/03/01 02:41:39;;;;;;;10.98;6.43;;;;;;;0.57;93.50;100250.91;3523442;28;20109;-64
2021/03/01 02:43:21;;;;;;;9.27;6.00;;;;;;;0.55;93.54;100255.91;3523088;28;20108;-65
2021/03/01 02:45:05;;;;;;;12.10;7.40;;;;;;;0.55;93.32;100258.47;3522291;28;20071;-65
2021/03/01 02:46:47;;;;;;;10.73;6.57;;;;;;;0.57;93.35;100258.56;3525601;28;20051;-65
2021/03/01 02:48:31;;;;;;;9.50;6.57;;;;;;;0.56;93.28;100265.34;3522236;28;20050;-65
2021/03/01 02:50:15;;;;;;;10.13;6.75;;;;;;;0.56;93.29;100270.44;3524588;28;20096;-64
2021/03/01 02:51:57;;;;;;;10.63;6.68;;;;;;;0.55;93.58;100266.13;3522176;28;20416;-65
2021/03/01 02:53:41;;;;;;;10.27;7.32;;;;;;;0.54;93.35;100274.59;3523654;28;20420;-65
2021/03/01 02:55:24;;;;;;;11.55;7.32;;;;;;;0.56;93.47;100277.19;3523712;28;20063;-65
2021/03/01 02:57:22;;;;;;;16.33;8.90;;;;;;;0.55;93.34;100275.44;3522044;28;20416;-65
2021/03/01 02:59:05;;;;;;;15.00;9.15;;;;;;;0.53;93.30;100285.56;3524929;28;20052;-65
2021/03/01 03:00:47;;;;;;;11.43;7.10;;;;;;;0.52;92.99;100288.88;3522401;28;20549;-65
2021/03/01 03:02:29;;;;;;;12.68;7.47;;;;;;;0.51;93.34;100288.81;3524361;28;20086;-65
2021/03/01 03:04:12;;;;;;;11.27;6.85;;;;;;;0.52;93.15;100288.00;3523843;28;20044;-65
2021/03/01 03:05:55;;;;;;;12.35;7.35;;;;;;;0.50;93.08;100290.47;3521843;28;20096;-65
2021/03/01 03:07:39;;;;;;;13.07;6.88;;;;;;;0.51;92.89;100289.69;3525519;28;20067;-65
2021/03/01 03:09:24;;;;;;;10.38;6.68;;;;;;;0.52;93.02;100294.00;3522055;28;20051;-65
2021/03/01 03:11:06;;;;;;;12.52;7.75;;;;;;;0.52;93.05;100300.78;3523397;28;20062;-65
2021/03/01 03:12:49;;;;;;;12.32;7.82;;;;;;;0.52;92.92;100299.09;3513592;28;20428;-64
2021/03/01 03:14:34;;;;;;;12.75;7.75;;;;;;;0.53;93.34;100305.97;3519256;28;20627;-65
2021/03/01 03:16:17;;;;;;;13.20;7.63;;;;;;;0.54;93.27;100306.84;3512447;28;20052;-65
2021/03/01 03:18:00;;;;;;;12.77;7.78;;;;;;;0.54;93.06;100311.97;3517312;28;20051;-65
2021/03/01 03:19:43;;;;;;;12.15;7.75;;;;;;;0.51;92.96;100310.13;3525525;28;20055;-65
2021/03/01 03:21:25;;;;;;;11.38;6.97;;;;;;;0.51;92.77;100320.31;3513857;28;20056;-66
2021/03/01 03:23:08;;;;;;;12.07;7.88;;;;;;;0.51;92.91;100314.34;3513241;28;20044;-65
2021/03/01 03:24:50;;;;;;;14.15;8.15;;;;;;;0.51;92.98;100317.78;3512441;28;20571;-65
2021/03/01 03:26:33;;;;;;;13.68;8.07;;;;;;;0.51;92.78;100327.97;3512286;28;20052;-65
2021/03/01 03:28:14;;;;;;;12.80;8.15;;;;;;;0.51;92.59;100325.44;3511435;28;20056;-65
2021/03/01 03:29:56;;;;;;;12.50;8.38;;;;;;;0.51;92.77;100329.66;3514569;28;20048;-65
2021/03/01 03:31:37;;;;;;;14.68;9.18;;;;;;;0.51;92.63;100330.53;3512594;28;20075;-65
2021/03/01 03:33:19;;;;;;;14.88;8.98;;;;;;;0.51;92.71;100332.22;3513209;28;20048;-65
2021/03/01 03:35:02;;;;;;;13.00;8.23;;;;;;;0.51;92.74;100330.53;3514442;28;20051;-65
2021/03/01 03:36:53;;;;;;;17.00;9.63;;;;;;;0.52;92.56;100333.97;3523993;28;20047;-65
2021/03/01 03:38:39;;;;;;;15.73;8.70;;;;;;;0.51;92.46;100338.19;3520321;28;20047;-65
2021/03/01 03:40:23;;;;;;;16.58;10.25;;;;;;;0.50;92.62;100332.97;3524408;28;20075;-65
2021/03/01 03:42:07;;;;;;;17.67;9.50;;;;;;;0.50;92.83;100338.97;3522023;28;20048;-65
2021/03/01 03:43:50;;;;;;;17.88;8.93;;;;;;;0.51;92.71;100337.31;3523342;28;20519;-65
2021/03/01 03:45:34;;;;;;;15.45;9.13;;;;;;;0.51;92.96;100335.63;3510193;28;20052;-65
2021/03/01 03:47:17;;;;;;;14.90;8.35;;;;;;;0.52;92.54;100336.50;3514811;28;20056;-66
2021/03/01 03:49:00;;;;;;;15.93;8.02;;;;;;;0.52;92.89;100339.06;3524979;28;20051;-65
2021/03/01 03:50:42;;;;;;;14.50;8.30;;;;;;;0.53;92.54;100340.84;3521419;28;20048;-64
2021/03/01 03:52:28;;;;;;;13.05;8.27;;;;;;;0.52;92.72;100339.06;3524610;28;20134;-64
2021/03/01 03:54:15;;;;;;;12.38;7.35;;;;;;;0.52;92.54;100334.84;3521548;28;20058;-64
2021/03/01 03:56:00;;;;;;;12.77;7.43;;;;;;;0.52;92.58;100337.38;3520425;28;20056;-64
2021/03/01 03:57:45;;;;;;;14.35;7.88;;;;;;;0.52;92.35;100342.50;3511091;28;20052;-64
2021/03/01 03:59:32;;;;;;;16.75;8.30;;;;;;;0.52;92.57;100341.63;3516419;28;20059;-64
2021/03/01 04:01:15;;;;;;;14.70;8.18;;;;;;;0.52;92.36;100344.16;3524668;28;20058;-64
2021/03/01 04:02:59;;;;;;;15.10;8.13;;;;;;;0.53;92.37;100345.94;3513286;28;20070;-64
2021/03/01 04:04:43;;;;;;;15.05;8.57;;;;;;;0.51;92.16;100343.28;3511984;28;20372;-64
2021/03/01 04:06:25;;;;;;;13.20;8.13;;;;;;;0.53;92.26;100349.38;3511946;28;20058;-64
2021/03/01 04:08:08;;;;;;;14.40;8.73;;;;;;;0.52;92.41;100352.69;3516597;28;20044;-63
2021/03/01 04:09:51;;;;;;;13.10;8.00;;;;;;;0.52;92.29;100354.38;3525040;28;20055;-64
2021/03/01 04:11:36;;;;;;;14.52;8.32;;;;;;;0.52;92.38;100354.38;3519679;28;20043;-64
2021/03/01 04:13:19;;;;;;;13.63;7.63;;;;;;;0.51;92.22;100345.84;3522660;28;20048;-64
2021/03/01 04:15:01;;;;;;;11.88;7.53;;;;;;;0.51;92.46;100355.19;3522257;28;20051;-64
2021/03/01 04:16:45;;;;;;;12.60;7.40;;;;;;;0.51;91.95;100356.06;3520149;28;20390;-64
2021/03/01 04:18:33;;;;;;;11.60;6.10;;;;;;;0.50;92.19;100354.28;3511133;28;20052;-64
2021/03/01 04:20:22;;;;;;;12.60;7.50;;;;;;;0.47;91.86;100351.56;3518778;28;20083;-64
2021/03/01 04:22:06;;;;;;;12.10;7.43;;;;;;;0.48;92.15;100355.84;3524135;28;20047;-64
2021/03/01 04:23:50;;;;;;;14.40;7.47;;;;;;;0.46;92.12;100354.88;3521806;28;20055;-64
2021/03/01 04:25:32;;;;;;;13.73;8.13;;;;;;;0.47;92.20;100358.31;3520890;28;20051;-64
2021/03/01 04:27:16;;;;;;;12.57;7.45;;;;;;;0.48;92.20;100354.97;3510652;28;20101;-64
2021/03/01 04:28:59;;;;;;;14.20;7.95;;;;;;;0.48;92.11;100357.53;3515670;28;20051;-63
2021/03/01 04:30:41;;;;;;;15.38;8.23;;;;;;;0.48;92.38;100366.06;3524596;28;20044;-63
2021/03/01 04:32:25;;;;;;;15.50;8.52;;;;;;;0.49;92.49;100367.84;3519860;28;20047;-64
2021/03/01 04:34:08;;;;;;;13.93;7.88;;;;;;;0.51;92.48;100370.50;3523598;28;20047;-63
2021/03/01 04:35:54;;;;;;;15.93;8.55;;;;;;;0.51;92.35;100367.94;3521818;28;20054;-63
2021/03/01 04:37:39;;;;;;;13.18;8.10;;;;;;;0.51;92.16;100380.72;3521038;28;20052;-63
2021/03/01 04:39:21;;;;;;;12.63;7.53;;;;;;;0.49;92.19;100367.84;3524841;28;20058;-64
2021/03/01 04:41:03;;;;;;;13.10;7.63;;;;;;;0.51;91.90;100379.03;3520856;28;20120;-64
2021/03/01 04:42:48;;;;;;;12.63;8.23;;;;;;;0.52;92.04;100380.78;3524019;28;20051;-64
2021/03/01 04:44:30;;;;;;;15.07;8.52;;;;;;;0.52;91.93;100383.34;3512074;28;20105;-64
2021/03/01 04:46:13;;;;;;;13.77;7.65;;;;;;;0.54;92.03;100383.44;3512112;28;20048;-64
2021/03/01 04:47:56;;;;;;;12.85;7.53;;;;;;;0.54;91.98;100375.78;3523124;28;20142;-63
2021/03/01 04:49:38;;;;;;;14.82;8.75;;;;;;;0.53;92.10;100385.13;3519444;28;20111;-63
2021/03/01 04:51:25;;;;;;;15.05;9.05;;;;;;;0.54;92.15;100383.44;3524341;28;20426;-64
2021/03/01 04:53:06;;;;;;;15.40;9.23;;;;;;;0.54;91.91;100378.34;3521074;28;20052;-64
2021/03/01 04:54:49;;;;;;;14.05;8.65;;;;;;;0.55;92.17;100388.66;3523313;28;20067;-63
2021/03/01 04:56:31;;;;;;;13.75;8.23;;;;;;;0.55;91.92;100391.19;3521231;28;20051;-63
2021/03/01 04:58:16;;;;;;;13.63;7.72;;;;;;;0.55;91.69;100392.88;3519218;28;20056;-63
2021/03/01 05:00:00;;;;;;;11.85;6.63;;;;;;;0.54;92.10;100399.66;3510191;28;20048;-63
2021/03/01 05:01:42;;;;;;;12.30;6.80;;;;;;;0.55;91.98;100403.97;3512479;28;20048;-63
2021/03/01 05:03:24;;;;;;;12.48;6.50;;;;;;;0.55;91.70;100403.09;3510065;28;20052;-63
2021/03/01 05:05:08;;;;;;;11.85;6.72;;;;;;;0.57;91.74;100414.28;3521096;28;20112;-64
2021/03/01 05:06:50;;;;;;;11.55;6.78;;;;;;;0.57;91.86;100421.94;3522634;28;20054;-63
2021/03/01 05:08:34;;;;;;;12.23;6.70;;;;;;;0.57;91.59;100420.25;3522618;28;20052;-64
2021/03/01 05:10:17;;;;;;;10.73;6.47;;;;;;;0.58;91.79;100427.16;3519593;28;20129;-63
2021/03/01 05:11:58;;;;;;;12.88;7.47;;;;;;;0.60;91.85;100424.69;3509963;28;20428;-64
2021/03/01 05:13:41;;;;;;;10.50;7.30;;;;;;;0.61;91.81;100436.66;3516861;28;20420;-63
2021/03/01 05:15:23;;;;;;;12.15;7.20;;;;;;;0.60;91.25;100443.44;3522862;28;20055;-63
2021/03/01 05:17:04;;;;;;;10.43;6.63;;;;;;;0.61;91.19;100451.97;3512480;28;20047;-63
2021/03/01 05:18:47;;;;;;;10.82;6.57;;;;;;;0.61;91.42;100454.53;3511364;28;20051;-63
2021/03/01 05:20:28;;;;;;;14.15;8.07;;;;;;;0.61;91.25;100451.97;3522177;28;20052;-64
2021/03/01 05:22:10;;;;;;;12.57;7.72;;;;;;;0.63;91.56;100454.63;3520529;28;20047;-63
2021/03/01 05:23:52;;;;;;;14.10;8.48;;;;;;;0.64;91.54;100457.28;3523963;28;20501;-63
2021/03/01 05:25:34;;;;;;;14.88;8.63;;;;;;;0.64;91.25;100457.28;3515761;28;20048;-63
2021/03/01 05:27:16;;;;;;;14.23;8.55;;;;;;;0.65;91.06;100459.06;3510643;28;20056;-63
2021/03/01 05:28:58;;;;;;;13.40;8.13;;;;;;;0.65;91.25;100469.28;3511695;28;20055;-63
2021/03/01 05:30:40;;;;;;;12.68;8.27;;;;;;;0.66;91.02;100462.50;3511236;28;20059;-63
2021/03/01 05:32:22;;;;;;;13.55;8.15;;;;;;;0.66;91.23;100465.06;3522307;28;20454;-63
2021/03/01 05:34:03;;;;;;;14.40;8.23;;;;;;;0.67;90.97;100466.84;3520337;28;20580;-64
2021/03/01 05:35:45;;;;;;;13.35;8.27;;;;;;;0.68;91.06;100463.50;3523901;28;20531;-64
2021/03/01 05:37:27;;;;;;;15.65;8.88;;;;;;;0.71;91.25;100463.69;3518016;28;20047;-63
2021/03/01 05:39:09;;;;;;;13.95;7.18;;;;;;;0.72;91.00;100465.44;3523161;28;20492;-63
2021/03/01 05:40:51;;;;;;;14.48;8.35;;;;;;;0.74;90.81;100474.13;3520822;28;20047;-63
2021/03/01 05:42:35;;;;;;;14.00;8.18;;;;;;;0.74;90.59;100476.69;3520296;28;20083;-63
2021/03/01 05:44:17;;;;;;;;;;;;;;;0.75;90.89;100481.88;3523488;28;20527;-63
2021/03/01 05:46:00;;;;;;;16.35;9.27;;;;;;;0.76;90.93;100488.75;3518807;28;19924;-63
2021/03/01 05:47:41;;;;;;;16.05;9.25;;;;;;;0.78;90.95;100491.41;3523892;28;20100;-63
2021/03/01 05:49:24;;;;;;;15.85;9.02;;;;;;;0.79;90.97;100491.50;3520540;28;20052;-63
2021/03/01 05:51:06;;;;;;;20.98;10.32;;;;;;;0.82;90.85;100497.59;3521661;28;20180;-63
2021/03/01 05:52:54;;;;;;;18.05;9.93;;;;;;;0.84;90.53;100501.13;3520873;28;20048;-63
2021/03/01 05:54:36;;;;;;;17.80;10.13;;;;;;;0.83;90.76;100507.91;3520657;28;20722;-63
2021/03/01 05:56:19;;;;;;;16.27;9.40;;;;;;;0.84;90.53;100507.13;3523926;28;20343;-63
2021/03/01 05:58:02;;;;;;;17.98;11.02;;;;;;;0.85;90.87;100514.00;3515470;28;20497;-63
2021/03/01 05:59:47;;;;;;;18.75;11.23;;;;;;;0.86;91.13;100512.31;3509774;28;20055;-63
2021/03/01 06:01:30;;;;;;;16.83;9.57;;;;;;;0.89;90.98;100522.75;3519792;28;20048;-63
2021/03/01 06:03:13;;;;;;;20.67;12.00;;;;;;;0.88;90.73;100527.00;3520790;28;20489;-63
2021/03/01 06:04:55;;;;;;;19.63;11.57;;;;;;;0.89;90.53;100530.41;3522150;28;20191;-63
2021/03/01 06:06:37;;;;;;;20.15;11.32;;;;;;;0.88;90.48;100531.22;3519969;28;20051;-63
2021/03/01 06:08:19;;;;;;;22.83;11.48;;;;;;;0.86;90.52;100536.22;3524343;28;20059;-62
2021/03/01 06:10:01;;;;;;;19.05;11.65;;;;;;;0.86;90.43;100537.88;3522656;28;20096;-63
2021/03/01 06:11:42;;;;;;;19.55;11.43;;;;;;;0.86;90.57;100538.78;3525107;28;20048;-62
2021/03/01 06:13:25;;;;;;;19.15;11.23;;;;;;;0.88;90.78;100546.53;3521348;28;20062;-63
2021/03/01 06:15:09;;;;;;;20.15;12.00;;;;;;;0.88;90.81;100547.41;3522939;28;20059;-62
2021/03/01 06:17:15;;;;;;;19.30;10.45;;;;;;;0.90;90.73;100553.50;3524051;28;20051;-62
2021/03/01 06:18:57;;;;;;;20.63;12.35;;;;;;;0.91;91.02;100550.19;3522629;28;20096;-62
2021/03/01 06:20:41;;;;;;;20.88;11.88;;;;;;;0.93;90.70;100557.94;3524389;28;20074;-62
2021/03/01 06:22:40;;;;;;;21.73;12.13;;;;;;;0.91;90.71;100557.84;3522420;28;20074;-62
2021/03/01 06:24:21;;;;;;;20.85;11.38;;;;;;;0.94;90.80;100564.81;3522420;28;20452;-62
2021/03/01 06:26:24;;;;;;;25.65;12.20;;;;;;;0.93;90.65;100571.59;3525835;28;20397;-62
2021/03/01 06:28:07;;;;;;;20.33;11.35;;;;;;;0.94;90.77;100565.69;3521036;28;20454;-62
2021/03/01 06:30:08;;;;;;;17.17;10.85;;;;;;;0.96;90.86;100570.91;3514299;28;20040;-62
2021/03/01 06:31:49;;;;;;;17.17;10.40;;;;;;;0.98;90.91;100579.56;3511722;28;20149;-62
2021/03/01 06:33:31;;;;;;;15.45;9.50;;;;;;;0.99;90.84;100573.69;3516543;28;20397;-63
2021/03/01 06:35:29;;;;;;;18.70;9.27;;;;;;;1.01;90.77;100587.44;3525995;28;20055;-63
2021/03/01 06:37:12;;;;;;;16.90;9.90;;;;;;;1.03;90.68;100587.53;3522715;28;20509;-63
2021/03/01 06:38:54;;;;;;;17.33;9.65;;;;;;;1.03;90.96;100596.06;3522422;28;20104;-63
2021/03/01 06:40:35;;;;;;;16.00;9.15;;;;;;;1.03;90.91;100593.53;3524373;28;20074;-63
2021/03/01 06:42:29;;;;;;;18.00;10.50;;;;;;;1.03;90.99;100602.88;3520758;28;20052;-63
2021/03/01 06:44:11;;;;;;;16.65;9.98;;;;;;;1.02;90.91;100601.06;3525917;28;20051;-62
2021/03/01 06:46:06;;;;;;;15.75;9.98;;;;;;;1.02;90.87;100603.63;3522177;28;20055;-63
2021/03/01 06:47:50;;;;;;;15.48;10.10;;;;;;;1.03;90.77;100613.09;3522117;28;20159;-62
2021/03/01 06:49:35;;;;;;;16.98;9.65;;;;;;;1.03;90.64;100611.41;3524783;28;20051;-62
2021/03/01 06:51:17;;;;;;;17.88;9.52;;;;;;;1.06;90.97;100616.72;3519812;28;20044;-62
2021/03/01 06:53:05;;;;;;;17.02;10.73;;;;;;;1.09;90.66;100616.03;3511630;28;20067;-62
2021/03/01 06:54:47;;;;;;;15.82;9.77;;;;;;;1.11;91.03;100612.81;3522217;28;20048;-62
2021/03/01 06:56:39;;;;;;;17.13;8.60;;;;;;;1.12;90.61;100618.81;3523508;28;20079;-62
2021/03/01 06:58:24;;;;;;;14.05;7.68;;;;;;;1.13;90.70;100628.25;3522974;28;20052;-62
2021/03/01 07:00:07;;;;;;;14.85;8.63;;;;;;;1.15;90.31;100627.56;3519050;28;20500;-62
2021/03/01 07:01:51;;;;;;;12.80;8.50;;;;;;;1.15;90.31;100629.22;3511592;28;20055;-62
2021/03/01 07:03:32;;;;;;;;;;;;;;;1.16;90.22;100628.47;3521171;28;20051;-61
2021/03/01 07:05:14;;;;;;;14.15;8.45;;;;;;;1.18;90.25;100635.44;3523868;28;19993;-61
2021/03/01 07:06:57;;;;;;;14.73;9.32;;;;;;;1.20;90.06;100634.66;3522454;28;20528;-61
2021/03/01 07:08:45;;;;;;;16.98;9.55;;;;;;;1.23;90.11;100632.28;3522124;28;20047;-61
2021/03/01 07:10:36;;;;;;;14.13;9.43;;;;;;;1.26;90.22;100638.50;3525514;28;20052;-61
2021/03/01 07:12:39;;;;;;;16.80;9.40;;;;;;;1.31;90.12;100642.25;3520729;28;20055;-61
2021/03/01 07:14:24;;;;;;;17.55;9.45;;;;;;;1.36;90.26;100637.44;3521695;28;20106;-62
2021/03/01 07:16:05;;;;;;;17.70;10.45;;;;;;;1.39;90.12;100637.66;3522336;28;20048;-62
2021/03/01 07:17:48;;;;;;;14.85;8.63;;;;;;;1.42;90.05;100639.50;3521768;28;20047;-62
2021/03/01 07:19:32;;;;;;;19.33;10.23;;;;;;;1.46;90.13;100642.38;3525201;28;20054;-62
2021/03/01 07:21:14;;;;;;;;;;;;;;;1.50;90.17;100649.47;3520492;28;20051;-62
2021/03/01 07:22:55;;;;;;;16.65;9.80;;;;;;;1.52;89.88;100644.44;3524000;28;19989;-62
2021/03/01 07:24:38;;;;;;;16.73;9.57;;;;;;;1.53;89.26;100652.22;3521584;28;20052;-61
2021/03/01 07:26:25;;;;;;;14.40;9.43;;;;;;;1.54;89.59;100650.53;3523496;28;20109;-61
2021/03/01 07:28:08;;;;;;;17.75;9.88;;;;;;;1.54;89.39;100659.09;3523965;28;20059;-62
2021/03/01 07:29:56;;;;;;;15.85;8.57;;;;;;;1.57;89.23;100650.75;3518077;28;20411;-61
2021/03/01 07:31:41;;;;;;;15.23;9.13;;;;;;;1.59;89.29;100651.72;3511309;28;20082;-61
2021/03/01 07:33:25;;;;;;;14.43;8.57;;;;;;;1.60;89.30;100650.97;3521159;28;20047;-61
2021/03/01 07:35:09;;;;;;;15.52;9.70;;;;;;;1.61;88.78;100650.16;3523162;28;20040;-61
2021/03/01 07:36:53;;;;;;;17.95;10.40;;;;;;;1.63;89.21;100648.56;3521995;28;20055;-62
2021/03/01 07:38:35;;;;;;;15.55;9.52;;;;;;;1.65;89.04;100653.78;3521667;28;20450;-62
2021/03/01 07:40:17;;;;;;;16.00;9.73;;;;;;;1.66;88.99;100651.34;3525413;28;20344;-61
2021/03/01 07:42:00;;;;;;;16.52;9.18;;;;;;;1.68;88.97;100648.88;3521470;28;20040;-61
2021/03/01 07:43:43;;;;;;;16.33;9.70;;;;;;;1.71;89.06;100656.75;3524909;28;20062;-61
2021/03/01 07:45:25;;;;;;;17.48;10.10;;;;;;;1.75;88.94;100653.59;3522240;28;20054;-61
2021/03/01 07:47:08;;;;;;;16.95;10.27;;;;;;;1.82;88.83;100658.34;3521442;28;20059;-61
2021/03/01 07:48:50;;;;;;;17.75;9.90;;;;;;;1.87;89.33;100649.28;3523662;28;20564;-61
2021/03/01 07:50:33;;;;;;;17.45;10.45;;;;;;;1.93;89.00;100659.91;3521694;28;20047;-61
2021/03/01 07:52:48;;;;;;;15.65;9.82;;;;;;;1.98;88.22;100656.75;3525017;28;20043;-61
2021/03/01 07:54:51;;;;;;;18.27;10.52;;;;;;;2.02;87.91;100663.84;3467544;28;20049;-61
2021/03/01 07:56:51;;;;;;;20.75;11.48;;;;;;;2.05;88.19;100659.81;3465183;28;20187;-61
2021/03/01 07:58:32;;;;;;;15.68;10.05;;;;;;;2.10;87.84;100653.31;3467339;28;20111;-61
2021/03/01 08:00:25;;;;;;;20.02;11.02;;;;;;;2.12;87.21;100666.19;3504682;28;20048;-61
2021/03/01 08:02:12;;;;;;;16.60;9.73;;;;;;;2.13;87.35;100666.31;3520170;28;20153;-61
2021/03/01 08:03:55;;;;;;;17.63;10.40;;;;;;;2.16;86.78;100662.16;3511153;28;20052;-60